Benge, WA

4:14 AM PDT on September 30, 2014 (GMT -0700)
Pullman-Moscow Regional | Change Station
CLOSE
Current Station
Airport
Location: Pullman,
Elevation: 2552 ft
Nearby Weather Stations

Elev 2552 ft 46.74 °N, 117.12 °W | Updated 21 minutes ago

Overcast
Overcast
51 °F
Feels Like 51 °F
N
21
Wind Variable Wind from WSW
Gusts 30 mph

Today
High -- | Low -- °F
--% Chance of Precip.
Yesterday
High -- | Low -- °F
Precip. -- in
6:49 AM 6:33 PM
Waxing Crescent, 35% visible
Pressure 29.88 in
Visibility 7.0 miles
Clouds Few 1000 ft
Mostly Cloudy 4200 ft
Overcast 6000 ft
Dew Point 47 °F
Humidity 86%
Rainfall 0.32 in
Snow Depth 0 in , 0 in , 0 in
UV 0 out of 12
Pollen 6.10 out of 12
Air Quality Not available.
Flu Activity Not available.
METAR KPUW 301053Z AUTO 24018G26KT 7SM -RA FEW010 BKN042 OVC060 11/08 A2989 RMK AO2 PK WND 25026/1050 RAE0959B25 SLP116 P0002 T01060083

More Conditions Fewer Conditions

Pressure 29.88 in
Visibility 7.0 miles
Clouds Few 1000 ft
Mostly Cloudy 4200 ft
Overcast 6000 ft
Dew Point 47 °F
Humidity 86%
Rainfall 0.32 in
Snow Depth 0 in , 0 in , 0 in
UV 0 out of 12
Pollen 6.10 out of 12
Air Quality Not available.
Flu Activity Not available.
METAR KPUW 301053Z AUTO 24018G26KT 7SM -RA FEW010 BKN042 OVC060 11/08 A2989 RMK AO2 PK WND 25026/1050 RAE0959B25 SLP116 P0002 T01060083

More Conditions Fewer Conditions

10-Day Weather Forecast

Almanac

Astronomy

Sep. 30, 2014 Rise Set
Actual Time 6:49 AM PDT 6:33 PM PDT
Civil Twilight 6:19 AM PDT 7:03 PM PDT
Nautical Twilight 5:43 AM PDT 7:38 PM PDT
Astronomical Twilight 5:07 AM PDT 8:14 PM PDT
Moon 1:19 PM PDT 10:51 PM PDT
Length of Visible Light 12h 44m
Length of Day
11h 43m
Tomorrow will be 3m 20s shorter.
Waxing Crescent, 35% of the Moon is Illuminated
Today
Waxing Crescent
Oct 1
First Quarter
Oct 8
Full
Oct 15
Last Quarter
Oct 23
New

Today's Extremes

State Highs State Lows

Community

WunderPhotos

Upload Photos

1,757,615 photos uploaded!

WunderBlogs® & News

Nearby

Snow Depth

Station Depth Elevation
Green Lake 0 in 6000 ft
June Lake 0 in 3340 ft
Thunder Basin 0 in 4200 ft
Fish Lake 0 in 3371 ft
Surprise Lakes 1 in 4250 ft

Earthquake Activity

City Distance Mag. Time & Date
No recent earthquake activity has been reported nearby.
Minimum magnitude displayed is 2.5.

Coastal Water Temperatures

Place Temperature
No Stations Reporting

Nearby Weather Stations